Time;durP1;ratioP1;P1;durP2;ratioP2;P2;SDS_P1;SDS_P2;PMS_P1;PMS_P2;Temp;Humidity;BMP_temperature;BMP_pressure;BME280_temperature;BME280_humidity;BME280_pressure;Samples;Min_cycle;Max_cycle;Signal;HPM_P1;HPM_P2
2023/06/14 00:02:01;;;;;;;20.33;7.93;;;;;;;16.42;62.72;101231.19;5063921;28;20025;-75
2023/06/14 00:04:26;;;;;;;21.75;8.18;;;;;;;16.38;61.95;101236.06;5063749;28;20113;-74
2023/06/14 00:06:52;;;;;;;18.13;7.93;;;;;;;16.35;62.76;101233.59;5067674;28;20040;-74
2023/06/14 00:09:17;;;;;;;19.52;9.07;;;;;;;16.30;62.95;101235.03;5063967;28;20029;-74
2023/06/14 00:11:43;;;;;;;27.05;8.93;;;;;;;16.27;63.02;101241.59;5054936;28;20028;-74
2023/06/14 00:14:09;;;;;;;20.65;8.93;;;;;;;16.23;64.73;101237.44;5065064;28;20486;-75
2023/06/14 00:16:36;;;;;;;19.75;8.50;;;;;;;16.17;63.57;101232.59;5059575;28;20122;-75
2023/06/14 00:19:05;;;;;;;20.38;8.57;;;;;;;16.15;62.44;101237.28;5067016;28;20025;-75
2023/06/14 00:21:31;;;;;;;20.83;8.57;;;;;;;16.08;63.63;101243.25;5065069;28;20032;-74
2023/06/14 00:23:58;;;;;;;18.88;8.75;;;;;;;16.02;63.14;101242.97;5047320;28;20051;-74
2023/06/14 00:26:23;;;;;;;21.98;9.13;;;;;;;16.00;63.55;101239.53;5065747;28;20057;-74
2023/06/14 00:28:49;;;;;;;22.25;9.02;;;;;;;15.98;64.16;101241.53;5060086;28;20396;-74
2023/06/14 00:31:14;;;;;;;19.35;8.20;;;;;;;15.92;64.34;101237.50;5072301;28;20020;-74
2023/06/14 00:33:39;;;;;;;19.90;7.50;;;;;;;15.89;64.33;101237.78;5046982;28;20475;-75
2023/06/14 00:36:05;;;;;;;21.23;8.27;;;;;;;15.87;62.83;101243.34;5041492;28;20040;-75
2023/06/14 00:38:30;;;;;;;20.00;8.52;;;;;;;15.83;63.17;101239.19;5053395;28;20056;-74
2023/06/14 00:40:55;;;;;;;19.80;8.63;;;;;;;15.80;63.41;101247.59;5045785;28;20036;-74
2023/06/14 00:43:21;;;;;;;19.52;7.57;;;;;;;15.81;63.83;101245.75;5067190;28;20052;-75
2023/06/14 00:45:46;;;;;;;19.33;7.88;;;;;;;15.77;63.00;101246.97;5049060;28;20029;-75
2023/06/14 00:48:13;;;;;;;19.45;8.43;;;;;;;15.75;63.41;101249.81;5063491;28;20059;-74
2023/06/14 00:50:40;;;;;;;18.85;8.38;;;;;;;15.70;63.46;101249.38;5056555;28;20110;-74
2023/06/14 00:53:06;;;;;;;19.15;8.07;;;;;;;15.67;62.77;101249.66;5057517;28;20029;-74
2023/06/14 00:55:32;;;;;;;19.80;8.75;;;;;;;15.66;63.85;101246.06;5051313;28;20300;-74
2023/06/14 00:57:58;;;;;;;19.85;8.57;;;;;;;15.64;62.39;101249.94;5036081;28;20029;-75
2023/06/14 01:00:23;;;;;;;21.75;8.00;;;;;;;15.61;62.01;101244.75;5046319;28;20029;-75
2023/06/14 01:02:51;;;;;;;18.73;7.82;;;;;;;15.59;62.10;101241.34;5058329;28;20028;-76
2023/06/14 01:05:17;;;;;;;21.13;7.63;;;;;;;15.58;61.74;101248.63;5041252;28;20036;-75
2023/06/14 01:08:02;;;;;;;18.08;7.43;;;;;;;15.58;60.91;101253.16;5038236;28;20416;-75
2023/06/14 01:10:39;;;;;;;19.90;7.63;;;;;;;15.56;61.09;101250.59;5055619;28;20048;-76
2023/06/14 01:13:18;;;;;;;20.85;8.13;;;;;;;15.53;61.15;101253.56;5059498;28;20028;-75
2023/06/14 01:15:45;;;;;;;20.25;7.03;;;;;;;15.52;60.80;101251.84;5056476;28;20396;-75
2023/06/14 01:18:17;;;;;;;17.52;6.95;;;;;;;15.50;61.04;101246.56;5037938;28;20476;-75
2023/06/14 01:20:44;;;;;;;20.77;6.93;;;;;;;15.47;61.82;101246.84;5044510;28;20044;-75
2023/06/14 01:23:12;;;;;;;17.67;6.93;;;;;;;15.44;61.75;101246.25;5043075;28;20039;-75
2023/06/14 01:25:38;;;;;;;20.02;6.70;;;;;;;15.45;61.42;101246.13;5039237;28;20348;-76
2023/06/14 01:28:11;;;;;;;16.70;6.90;;;;;;;15.41;61.76;101247.38;5056449;28;20051;-76
2023/06/14 01:30:44;;;;;;;18.88;7.03;;;;;;;15.41;60.51;101244.69;5059964;28;20521;-75
2023/06/14 01:33:13;;;;;;;19.60;6.72;;;;;;;15.40;60.15;101247.53;5051680;28;20031;-75
2023/06/14 01:35:39;;;;;;;17.77;7.30;;;;;;;15.41;59.53;101241.13;5062998;28;20035;-75
2023/06/14 01:38:06;;;;;;;17.30;5.93;;;;;;;15.40;60.92;101247.53;5059378;28;20408;-75
2023/06/14 01:40:33;;;;;;;18.08;6.57;;;;;;;15.38;61.39;101251.22;5056352;28;20074;-75
2023/06/14 01:42:59;;;;;;;16.73;6.72;;;;;;;15.38;60.02;101251.22;5060647;28;20032;-75
2023/06/14 01:45:24;;;;;;;16.27;5.90;;;;;;;15.41;59.47;101246.53;5058092;28;20154;-75
2023/06/14 01:47:50;;;;;;;15.43;5.43;;;;;;;15.42;60.96;101248.22;5055314;28;20481;-75
2023/06/14 01:50:15;;;;;;;20.33;6.13;;;;;;;15.43;60.29;101247.25;5062570;28;20381;-76
2023/06/14 01:52:41;;;;;;;18.42;6.50;;;;;;;15.40;59.96;101242.09;5057117;28;20051;-75
2023/06/14 01:55:07;;;;;;;16.63;6.18;;;;;;;15.41;61.44;101241.13;5048434;28;20083;-76
2023/06/14 01:57:33;;;;;;;14.95;5.28;;;;;;;15.42;59.21;101237.41;5057761;28;20035;-75
2023/06/14 01:59:58;;;;;;;21.50;5.93;;;;;;;15.42;59.21;101245.53;5058533;28;20419;-75
2023/06/14 02:02:26;;;;;;;15.80;5.47;;;;;;;15.45;60.84;101240.72;5059516;28;20082;-76
2023/06/14 02:04:52;;;;;;;18.42;6.75;;;;;;;15.44;58.93;101244.41;5061907;28;20028;-75
2023/06/14 02:07:17;;;;;;;18.17;6.28;;;;;;;15.51;58.70;101247.44;5051497;28;20036;-76
2023/06/14 02:09:42;;;;;;;18.70;5.80;;;;;;;15.53;58.11;101245.44;5041355;28;20031;-76
2023/06/14 02:12:08;;;;;;;15.35;5.40;;;;;;;15.55;59.99;101246.19;5049431;28;20025;-76
2023/06/14 02:14:33;;;;;;;16.70;5.45;;;;;;;15.51;58.43;101250.16;5058952;28;20021;-75
2023/06/14 02:17:00;;;;;;;15.93;6.43;;;;;;;15.51;58.35;101242.88;5060966;28;20033;-75
2023/06/14 02:19:26;;;;;;;17.08;6.03;;;;;;;15.53;56.95;101248.16;5059989;28;20105;-75
2023/06/14 02:21:51;;;;;;;18.17;6.32;;;;;;;15.53;57.69;101248.16;5042356;28;20089;-75
2023/06/14 02:24:17;;;;;;;17.38;6.05;;;;;;;15.53;58.28;101240.03;5049280;28;20056;-75
2023/06/14 02:26:42;;;;;;;16.58;6.20;;;;;;;15.54;58.31;101244.47;5047806;28;20106;-76
2023/06/14 02:29:10;;;;;;;12.93;4.97;;;;;;;15.53;59.81;101242.75;5056933;28;20484;-76
2023/06/14 02:31:35;;;;;;;15.30;5.60;;;;;;;15.55;55.96;101240.78;5042277;28;20024;-76
2023/06/14 02:34:01;;;;;;;15.98;5.70;;;;;;;15.56;57.49;101247.88;5060844;28;20123;-75
2023/06/14 02:36:27;;;;;;;20.25;5.70;;;;;;;15.55;58.57;101244.31;5057919;28;20444;-76
2023/06/14 02:38:54;;;;;;;19.33;5.60;;;;;;;15.58;58.50;101250.47;5062551;28;20111;-76
2023/06/14 02:41:19;;;;;;;16.23;5.97;;;;;;;15.59;57.72;101255.75;5054259;28;20070;-76
2023/06/14 02:43:44;;;;;;;18.63;5.60;;;;;;;15.59;59.22;101263.88;5056274;28;20062;-76
2023/06/14 02:46:11;;;;;;;17.92;5.65;;;;;;;15.59;59.14;101254.88;5035930;28;20037;-75
2023/06/14 02:48:36;;;;;;;15.25;5.80;;;;;;;15.55;58.31;101257.03;5040137;28;20539;-75
2023/06/14 02:51:01;;;;;;;16.65;5.38;;;;;;;15.51;57.77;101255.56;5038730;28;20678;-76
2023/06/14 02:53:27;;;;;;;15.90;5.75;;;;;;;15.44;58.58;101257.94;5059992;28;20131;-76
2023/06/14 02:55:52;;;;;;;19.98;6.50;;;;;;;15.41;59.84;101255.50;5036135;28;20028;-76
2023/06/14 02:58:18;;;;;;;19.45;6.18;;;;;;;15.39;57.76;101262.94;5057462;28;20033;-76
2023/06/14 03:00:44;;;;;;;16.60;6.35;;;;;;;15.33;59.01;101253.47;5064266;28;20029;-75
2023/06/14 03:03:13;;;;;;;16.30;6.13;;;;;;;15.32;58.52;101257.16;5061055;28;20028;-76
2023/06/14 03:05:47;;;;;;;16.58;6.35;;;;;;;15.31;58.82;101255.44;5060459;28;20056;-75
2023/06/14 03:08:19;;;;;;;19.15;6.22;;;;;;;15.32;58.64;101261.75;5061199;28;20070;-75
2023/06/14 03:10:45;;;;;;;17.10;6.10;;;;;;;15.27;58.77;101267.56;5039675;28;20540;-75
2023/06/14 03:13:11;;;;;;;18.55;6.25;;;;;;;15.24;59.09;101275.91;5039209;28;20102;-76
2023/06/14 03:15:36;;;;;;;22.10;6.50;;;;;;;15.17;60.03;101274.75;5056813;28;20068;-76
2023/06/14 03:18:03;;;;;;;17.25;5.85;;;;;;;15.14;59.41;101272.28;5054165;28;20032;-76
2023/06/14 03:20:32;;;;;;;19.35;6.05;;;;;;;15.12;59.44;101275.13;5060656;28;20058;-76
2023/06/14 03:22:58;;;;;;;16.80;5.63;;;;;;;15.07;60.05;101271.97;5049105;28;20031;-75
2023/06/14 03:25:23;;;;;;;14.75;5.30;;;;;;;15.03;60.09;101270.53;5038416;28;20030;-76
2023/06/14 03:27:48;;;;;;;16.52;5.53;;;;;;;15.03;59.82;101273.22;5035836;28;20047;-76
2023/06/14 03:30:14;;;;;;;15.27;5.60;;;;;;;15.00;59.70;101271.63;5058545;28;20082;-76
2023/06/14 03:32:39;;;;;;;14.93;5.28;;;;;;;15.00;58.83;101278.91;5041999;28;20392;-76
2023/06/14 03:35:05;;;;;;;17.48;6.05;;;;;;;14.98;58.21;101272.78;5062435;28;20452;-76
2023/06/14 03:37:31;;;;;;;19.02;5.75;;;;;;;14.95;58.92;101276.59;5036824;28;20035;-76
2023/06/14 03:39:56;;;;;;;20.35;6.00;;;;;;;14.97;60.37;101279.16;5042270;28;20114;-76
2023/06/14 03:42:22;;;;;;;15.32;5.68;;;;;;;14.93;60.74;101283.97;5035851;28;20029;-76
2023/06/14 03:44:47;;;;;;;17.58;6.45;;;;;;;14.93;61.00;101283.13;5057144;28;20033;-75
2023/06/14 03:47:12;;;;;;;18.75;6.60;;;;;;;14.91;60.77;101294.09;5059897;28;20029;-76
2023/06/14 03:49:37;;;;;;;19.35;6.05;;;;;;;14.90;61.19;101286.09;5041884;28;20052;-75
2023/06/14 03:52:03;;;;;;;16.33;6.32;;;;;;;14.87;60.16;101287.19;5066396;28;20166;-75
2023/06/14 03:54:29;;;;;;;16.40;5.80;;;;;;;14.89;61.48;101281.66;5047018;28;20511;-75
2023/06/14 03:56:54;;;;;;;17.75;5.85;;;;;;;14.85;61.59;101284.63;5034776;28;20032;-75
2023/06/14 03:59:19;;;;;;;15.77;6.38;;;;;;;14.85;61.31;101289.19;5058001;28;20708;-75
2023/06/14 04:01:46;;;;;;;16.85;5.72;;;;;;;14.83;62.16;101294.75;5057565;28;20033;-75
2023/06/14 04:04:12;;;;;;;19.63;6.45;;;;;;;14.82;61.15;101292.16;5054691;28;20032;-75
2023/06/14 04:06:37;;;;;;;16.08;5.97;;;;;;;14.80;61.84;101291.41;5062393;28;20361;-76
2023/06/14 04:09:02;;;;;;;15.48;5.68;;;;;;;14.80;62.81;101299.53;5035883;28;20029;-75
2023/06/14 04:11:28;;;;;;;16.02;6.38;;;;;;;14.81;64.29;101301.25;5035732;28;20302;-75
2023/06/14 04:13:56;;;;;;;17.45;6.03;;;;;;;14.85;62.35;101300.03;5045441;28;20035;-75
2023/06/14 04:16:21;;;;;;;19.40;6.63;;;;;;;14.88;63.50;101305.16;5055991;28;20496;-76
2023/06/14 04:18:48;;;;;;;15.88;6.00;;;;;;;14.88;64.01;101302.47;5034493;28;20111;-76
2023/06/14 04:21:13;;;;;;;19.63;6.80;;;;;;;14.84;63.54;101309.97;5055014;28;20082;-76
2023/06/14 04:23:38;;;;;;;15.57;5.68;;;;;;;14.81;64.01;101303.97;5040051;28;20033;-75
2023/06/14 04:26:04;;;;;;;17.17;7.03;;;;;;;14.81;64.48;101312.94;5058070;28;20407;-76
2023/06/14 04:28:29;;;;;;;19.80;6.53;;;;;;;14.81;64.50;101312.09;5044534;28;20025;-75
2023/06/14 04:30:55;;;;;;;16.67;6.18;;;;;;;14.81;65.58;101304.81;5042527;28;20108;-76
2023/06/14 04:33:22;;;;;;;16.77;6.22;;;;;;;14.82;65.82;101313.81;5041949;28;20028;-76
2023/06/14 04:35:48;;;;;;;17.90;6.72;;;;;;;14.79;62.41;101314.06;5063006;28;20048;-76
2023/06/14 04:38:15;;;;;;;16.75;6.35;;;;;;;14.80;65.74;101315.75;5050642;28;20143;-75
2023/06/14 04:40:42;;;;;;;19.48;6.57;;;;;;;14.85;65.52;101311.69;5057673;28;20033;-75
2023/06/14 04:43:08;;;;;;;20.75;6.68;;;;;;;14.88;65.15;101312.44;5056315;28;20067;-76
2023/06/14 04:45:34;;;;;;;18.55;6.30;;;;;;;14.91;65.21;101314.88;5058077;28;20162;-76
2023/06/14 04:47:59;;;;;;;17.65;6.70;;;;;;;14.95;65.33;101313.59;5039019;28;20060;-76
2023/06/14 04:50:25;;;;;;;22.00;7.47;;;;;;;14.97;66.57;101319.78;5034042;28;20032;-76
2023/06/14 04:52:51;;;;;;;18.05;6.50;;;;;;;15.01;64.83;101315.81;5057199;28;20025;-76
2023/06/14 04:55:19;;;;;;;17.00;6.50;;;;;;;15.04;64.64;101320.97;5046070;28;20028;-75
2023/06/14 04:57:44;;;;;;;17.10;6.13;;;;;;;15.05;64.53;101319.13;5046234;28;20029;-76
2023/06/14 05:00:11;;;;;;;19.27;6.60;;;;;;;15.11;64.20;101319.47;5044614;28;20086;-76
2023/06/14 05:02:37;;;;;;;19.73;7.53;;;;;;;15.17;63.97;101318.09;5048534;28;20112;-75
2023/06/14 05:05:04;;;;;;;17.45;6.38;;;;;;;15.22;65.58;101321.25;5041258;28;20032;-76
2023/06/14 05:07:29;;;;;;;16.98;6.43;;;;;;;15.29;61.55;101325.16;5034716;28;20125;-76
2023/06/14 05:09:55;;;;;;;21.08;7.90;;;;;;;15.36;63.92;101320.91;5043784;28;20127;-76
2023/06/14 05:12:20;;;;;;;22.05;7.78;;;;;;;15.41;62.14;101325.09;5058343;28;20040;-76
2023/06/14 05:14:45;;;;;;;19.05;6.93;;;;;;;15.48;66.32;101332.53;5061431;28;20502;-76
2023/06/14 05:17:11;;;;;;;22.02;6.45;;;;;;;15.52;63.21;101330.41;5057687;28;20131;-76
2023/06/14 05:19:36;;;;;;;21.25;7.25;;;;;;;15.57;62.43;101333.59;5041523;28;20029;-76
2023/06/14 05:22:02;;;;;;;19.02;7.20;;;;;;;15.65;62.30;101331.09;5040242;28;20111;-76
2023/06/14 05:24:30;;;;;;;20.45;7.47;;;;;;;15.73;63.13;101335.81;5063515;28;20021;-76
2023/06/14 05:26:55;;;;;;;19.17;7.35;;;;;;;15.79;62.00;101339.88;5057377;28;20048;-76
2023/06/14 05:29:20;;;;;;;18.83;6.45;;;;;;;15.85;62.89;101333.91;5059633;28;20025;-76
2023/06/14 05:31:46;;;;;;;18.80;7.18;;;;;;;15.92;62.93;101334.25;5041344;28;20025;-76
2023/06/14 05:34:11;;;;;;;19.48;6.68;;;;;;;15.99;60.74;101329.97;5041887;28;20112;-76
2023/06/14 05:36:36;;;;;;;20.40;7.13;;;;;;;16.05;60.78;101335.72;5040876;28;20112;-76
2023/06/14 05:39:02;;;;;;;21.15;7.10;;;;;;;16.12;59.71;101346.03;5060583;28;20029;-76
2023/06/14 05:41:28;;;;;;;18.45;7.07;;;;;;;16.19;60.07;101339.94;5044348;28;20024;-76
2023/06/14 05:43:55;;;;;;;19.60;6.53;;;;;;;16.27;61.47;101341.94;5039567;28;20598;-76
2023/06/14 05:46:24;;;;;;;18.95;7.40;;;;;;;16.34;60.51;101345.81;5058186;28;20040;-76
2023/06/14 05:48:49;;;;;;;19.67;6.17;;;;;;;16.41;58.92;101347.00;5058853;28;20040;-76
2023/06/14 05:51:18;;;;;;;19.70;6.78;;;;;;;16.50;61.04;101350.72;5062885;28;20028;-76
2023/06/14 05:53:44;;;;;;;19.83;6.70;;;;;;;16.59;58.53;101351.75;5062741;28;20055;-76
2023/06/14 05:56:09;;;;;;;20.67;7.55;;;;;;;16.64;58.09;101352.16;5039314;28;20036;-76
2023/06/14 05:58:35;;;;;;;20.92;6.82;;;;;;;16.72;60.50;101355.06;5056264;28;20029;-75
2023/06/14 06:01:01;;;;;;;17.23;6.15;;;;;;;16.80;60.54;101362.50;5056842;28;20442;-76
2023/06/14 06:03:29;;;;;;;19.77;6.72;;;;;;;16.87;58.65;101365.50;5058375;28;20052;-76
2023/06/14 06:05:54;;;;;;;19.48;7.00;;;;;;;16.94;58.03;101364.81;5045634;28;20483;-76
2023/06/14 06:08:20;;;;;;;19.17;6.70;;;;;;;17.01;58.64;101369.69;5034011;28;20250;-76
2023/06/14 06:10:45;;;;;;;16.23;5.47;;;;;;;17.07;58.87;101367.28;5061001;28;20028;-76
2023/06/14 06:13:10;;;;;;;17.63;5.63;;;;;;;17.15;57.90;101371.13;5051552;28;20027;-76
2023/06/14 06:15:36;;;;;;;18.42;7.07;;;;;;;17.21;58.36;101370.56;5057782;28;20400;-76
2023/06/14 06:18:01;;;;;;;19.55;6.55;;;;;;;17.30;58.22;101369.69;5053603;28;20439;-76
2023/06/14 06:20:28;;;;;;;17.73;6.47;;;;;;;17.35;57.76;101361.97;5059803;28;20020;-76
2023/06/14 06:22:53;;;;;;;16.88;5.78;;;;;;;17.44;57.02;101376.56;5056125;28;20086;-76
2023/06/14 06:25:19;;;;;;;18.30;6.68;;;;;;;17.50;55.68;101381.41;5057109;28;20056;-76
2023/06/14 06:27:44;;;;;;;20.88;6.07;;;;;;;17.57;55.37;101378.94;5041224;28;20053;-76
2023/06/14 06:30:10;;;;;;;20.05;6.22;;;;;;;17.66;55.38;101380.81;5053178;28;20040;-77
2023/06/14 06:32:36;;;;;;;18.33;6.03;;;;;;;17.72;55.88;101376.66;5054323;28;20503;-76
2023/06/14 06:35:01;;;;;;;17.40;6.72;;;;;;;17.78;54.94;101385.06;5044305;28;20033;-77
2023/06/14 06:37:26;;;;;;;16.67;6.55;;;;;;;17.88;53.47;101389.59;5035377;28;20359;-76
2023/06/14 06:39:52;;;;;;;17.83;5.95;;;;;;;17.95;54.63;101396.22;5052248;28;20459;-75
2023/06/14 06:42:17;;;;;;;17.10;6.20;;;;;;;18.01;54.05;101392.03;5055098;28;20048;-76
2023/06/14 06:44:42;;;;;;;18.27;5.65;;;;;;;18.06;54.51;101398.75;5050693;28;20100;-76
2023/06/14 06:47:09;;;;;;;20.52;5.85;;;;;;;18.16;53.93;101401.47;5056774;28;20032;-76
2023/06/14 06:49:34;;;;;;;17.25;5.97;;;;;;;18.24;55.34;101397.97;5051384;28;20029;-75
2023/06/14 06:52:05;;;;;;;15.02;5.57;;;;;;;18.31;52.74;101401.81;5033128;28;20032;-76
2023/06/14 06:54:31;;;;;;;17.65;5.72;;;;;;;18.39;54.26;101401.94;5052810;28;20442;-76
2023/06/14 06:56:56;;;;;;;16.27;5.32;;;;;;;18.44;54.30;101401.47;5031374;28;20043;-76
2023/06/14 06:59:21;;;;;;;18.48;5.80;;;;;;;18.49;53.65;101410.03;5049690;28;20032;-73
2023/06/14 07:01:47;;;;;;;22.02;6.15;;;;;;;18.52;53.24;101410.59;5028922;28;20044;-74
2023/06/14 07:04:13;;;;;;;17.88;5.40;;;;;;;18.60;54.03;101409.00;5052725;28;20389;-73
2023/06/14 07:06:38;;;;;;;23.60;5.55;;;;;;;18.65;53.18;101414.81;5031507;28;20465;-73
2023/06/14 07:09:06;;;;;;;18.83;5.78;;;;;;;18.71;53.23;101407.91;5031070;28;20037;-73
2023/06/14 07:11:31;;;;;;;15.65;5.45;;;;;;;18.82;54.18;101411.28;5053510;28;20592;-73
2023/06/14 07:13:57;;;;;;;18.20;6.40;;;;;;;18.89;51.30;101418.88;5060030;28;20035;-73
2023/06/14 07:16:23;;;;;;;15.05;5.00;;;;;;;18.97;52.29;101427.16;5045472;28;20112;-74
2023/06/14 07:18:48;;;;;;;17.15;5.35;;;;;;;19.04;52.34;101420.06;5038050;28;20137;-74
2023/06/14 07:21:14;;;;;;;16.38;5.68;;;;;;;19.10;51.94;101424.91;5059784;28;20048;-74
2023/06/14 07:23:39;;;;;;;16.67;5.60;;;;;;;19.18;51.11;101427.72;5032596;28;20112;-73
2023/06/14 07:26:04;;;;;;;15.57;5.38;;;;;;;19.25;51.35;101421.63;5061374;28;20051;-73
2023/06/14 07:28:30;;;;;;;15.98;5.28;;;;;;;19.32;51.69;101428.19;5061487;28;20097;-74
2023/06/14 07:30:56;;;;;;;16.92;6.15;;;;;;;19.36;51.71;101430.44;5060101;28;20055;-74
2023/06/14 07:33:21;;;;;;;16.98;5.53;;;;;;;19.41;51.60;101429.97;5055462;28;20017;-74
2023/06/14 07:35:47;;;;;;;16.88;5.85;;;;;;;19.52;51.11;101439.78;5037515;28;20418;-73
2023/06/14 07:38:12;;;;;;;15.02;5.60;;;;;;;19.60;50.81;101442.56;5057278;28;20036;-74
2023/06/14 07:40:38;;;;;;;15.13;5.57;;;;;;;19.64;50.73;101449.44;5057111;28;20028;-74
2023/06/14 07:43:03;;;;;;;17.40;5.30;;;;;;;19.72;48.90;101443.19;5030775;28;20017;-74
2023/06/14 07:45:29;;;;;;;14.13;5.22;;;;;;;19.77;50.37;101440.84;5031099;28;20090;-74
2023/06/14 07:47:54;;;;;;;17.10;6.07;;;;;;;19.84;50.09;101447.41;5057159;28;20064;-74
2023/06/14 07:50:20;;;;;;;17.88;6.53;;;;;;;19.90;49.95;101454.09;5047304;28;20116;-73
2023/06/14 07:52:46;;;;;;;14.85;5.05;;;;;;;19.97;51.20;101443.41;5042865;28;20028;-74
2023/06/14 07:55:12;;;;;;;11.35;4.85;;;;;;;20.00;50.74;101445.81;5032808;28;20021;-74
2023/06/14 07:57:38;;;;;;;17.52;5.80;;;;;;;20.04;47.83;101449.94;5061608;28;20387;-73
2023/06/14 08:00:06;;;;;;;15.55;5.95;;;;;;;20.14;48.43;101447.94;5061518;28;20052;-74
2023/06/14 08:02:31;;;;;;;14.75;5.57;;;;;;;20.19;49.48;101451.06;5058851;28;20029;-74
2023/06/14 08:04:57;;;;;;;12.25;5.05;;;;;;;20.27;48.18;101465.78;5057970;28;20036;-74
2023/06/14 08:07:22;;;;;;;14.80;5.53;;;;;;;20.33;47.46;101467.84;5040390;28;20126;-74
2023/06/14 08:09:48;;;;;;;19.90;5.88;;;;;;;20.38;47.83;101463.63;5040205;28;20024;-74
2023/06/14 08:12:13;;;;;;;12.88;5.00;;;;;;;20.46;46.26;101464.69;5058103;28;20021;-74
2023/06/14 08:14:39;;;;;;;14.45;5.35;;;;;;;20.55;48.88;101464.56;5041875;28;20049;-74
2023/06/14 08:17:05;;;;;;;14.25;4.85;;;;;;;20.62;45.85;101463.91;5041093;28;20140;-74
2023/06/14 08:19:31;;;;;;;14.85;4.85;;;;;;;20.66;45.61;101462.56;5048920;28;20037;-73
2023/06/14 08:21:57;;;;;;;10.60;4.35;;;;;;;20.73;44.92;101464.50;5046425;28;20017;-73
2023/06/14 08:24:26;;;;;;;15.02;4.88;;;;;;;20.76;43.83;101468.78;5044361;28;20365;-74
2023/06/14 08:26:52;;;;;;;16.50;4.80;;;;;;;20.85;43.25;101461.47;5032027;28;20040;-75
2023/06/14 08:29:17;;;;;;;13.77;4.60;;;;;;;20.90;43.16;101456.38;5060935;28;20043;-74
2023/06/14 08:31:42;;;;;;;19.27;5.55;;;;;;;20.92;44.61;101460.66;5043717;28;20075;-74
2023/06/14 08:34:08;;;;;;;18.15;5.00;;;;;;;20.97;43.03;101451.09;5064899;28;20046;-74
2023/06/14 08:36:35;;;;;;;14.10;4.60;;;;;;;21.05;45.17;101457.44;5057309;28;20457;-75
2023/06/14 08:39:00;;;;;;;14.85;4.72;;;;;;;21.09;44.74;101457.97;5043185;28;20032;-74
2023/06/14 08:41:29;;;;;;;13.75;5.78;;;;;;;21.12;43.22;101465.81;5061224;28;20012;-74
2023/06/14 08:43:54;;;;;;;16.23;5.18;;;;;;;21.15;42.48;101461.91;5054877;28;20056;-75
2023/06/14 08:46:20;;;;;;;12.48;4.57;;;;;;;21.17;43.41;101466.16;5057658;28;20033;-75
2023/06/14 08:48:49;;;;;;;12.23;4.78;;;;;;;21.23;45.04;101451.84;5034721;28;20496;-76
2023/06/14 08:51:18;;;;;;;13.73;4.45;;;;;;;21.25;44.43;101454.41;5045337;28;20040;-76
2023/06/14 08:53:44;;;;;;;12.52;4.32;;;;;;;21.28;44.88;101459.53;5043248;28;20036;-78
2023/06/14 08:56:13;;;;;;;10.32;4.15;;;;;;;21.30;44.66;101452.88;5060313;28;20021;-78
2023/06/14 08:58:44;;;;;;;19.33;5.20;;;;;;;21.37;44.00;101453.06;5041145;28;20444;-78
2023/06/14 09:01:14;;;;;;;12.18;4.20;;;;;;;21.43;42.23;101454.25;5057940;28;20074;-78
2023/06/14 09:03:41;;;;;;;11.02;4.18;;;;;;;21.48;43.18;101460.94;5053063;28;20136;-79
2023/06/14 09:06:08;;;;;;;13.80;4.10;;;;;;;21.54;42.31;101461.28;5060028;28;20032;-78
2023/06/14 09:08:40;;;;;;;12.30;3.90;;;;;;;21.60;43.48;101472.44;5057322;28;20033;-78
2023/06/14 09:11:05;;;;;;;12.57;4.18;;;;;;;21.60;41.53;101468.84;5044984;28;20020;-77
2023/06/14 09:13:30;;;;;;;13.65;3.80;;;;;;;21.66;41.17;101467.31;5057350;28;20136;-78
2023/06/14 09:15:56;;;;;;;7.50;3.47;;;;;;;21.68;41.11;101462.50;5042089;28;20024;-79
2023/06/14 09:18:21;;;;;;;12.07;4.15;;;;;;;21.68;40.75;101471.56;5060798;28;20158;-78
2023/06/14 09:20:49;;;;;;;12.73;3.78;;;;;;;21.71;39.16;101463.00;5063038;28;20091;-78
2023/06/14 09:23:21;;;;;;;11.30;3.97;;;;;;;21.71;41.19;101457.53;5063568;28;20029;-78
2023/06/14 09:25:46;;;;;;;9.30;3.75;;;;;;;21.79;41.85;101462.19;5043613;28;20024;-79
2023/06/14 09:28:12;;;;;;;11.90;4.03;;;;;;;21.81;42.15;101460.13;5039786;28;20194;-79
2023/06/14 09:30:38;;;;;;;12.68;3.60;;;;;;;21.83;44.80;101463.53;5067745;28;20032;-80
2023/06/14 09:33:03;;;;;;;9.70;3.33;;;;;;;21.94;40.67;101470.53;5037157;28;20039;-83
2023/06/14 09:35:31;;;;;;;10.65;3.65;;;;;;;21.95;41.17;101469.53;5030032;28;20536;-81
2023/06/14 09:37:56;;;;;;;12.02;3.50;;;;;;;22.02;39.86;101466.94;5043540;28;20512;-81
2023/06/14 09:40:22;;;;;;;16.73;3.63;;;;;;;22.08;39.97;101474.44;5022290;28;20029;-78
2023/06/14 09:42:47;;;;;;;7.97;2.60;;;;;;;22.09;35.40;101471.53;5038576;28;20130;-81
2023/06/14 09:45:13;;;;;;;12.75;3.35;;;;;;;22.14;37.13;101473.78;5039888;28;20037;-79
2023/06/14 09:47:39;;;;;;;10.68;3.08;;;;;;;22.21;37.47;101476.66;5024573;28;20037;-83
2023/06/14 09:50:06;;;;;;;8.65;3.25;;;;;;;22.19;38.19;101473.25;5039042;28;20043;-78
2023/06/14 09:52:31;;;;;;;5.28;2.65;;;;;;;22.22;37.35;101467.44;5043584;28;20033;-78
2023/06/14 09:54:59;;;;;;;12.85;3.00;;;;;;;22.30;36.09;101470.13;5024597;28;20021;-77
2023/06/14 09:57:26;;;;;;;7.55;2.42;;;;;;;22.36;36.35;101474.09;5025871;28;20020;-77
2023/06/14 09:59:52;;;;;;;10.25;2.60;;;;;;;;;;5026049;28;20078;-77
2023/06/14 10:02:39;;;;;;;7.25;2.85;;;;;;;22.45;38.08;101467.56;5026489;28;20108;-77
2023/06/14 10:05:06;;;;;;;10.00;3.10;;;;;;;22.50;37.59;101463.28;5042673;28;20463;-77
2023/06/14 10:07:40;;;;;;;7.93;2.88;;;;;;;22.50;38.12;101463.28;5041958;28;20029;-77
2023/06/14 10:10:06;;;;;;;6.80;2.13;;;;;;;22.58;37.23;101458.78;5023357;28;20142;-75
2023/06/14 10:12:32;;;;;;;6.53;2.80;;;;;;;22.62;36.59;101460.13;5041688;28;20025;-74
2023/06/14 10:14:58;;;;;;;9.63;3.05;;;;;;;22.67;37.67;101455.00;5047231;28;20495;-76
2023/06/14 10:18:05;;;;;;;5.47;2.40;;;;;;;22.67;37.02;101463.22;5045234;28;20032;-75
2023/06/14 10:20:58;;;;;;;6.28;2.50;;;;;;;22.71;37.78;101455.47;4976509;28;20118;-75
2023/06/14 10:23:26;;;;;;;6.57;2.72;;;;;;;22.82;37.87;101455.09;4960014;28;20041;-75
2023/06/14 10:25:57;;;;;;;8.50;2.75;;;;;;;22.90;37.44;101455.06;4960150;28;20049;-75
2023/06/14 10:28:24;;;;;;;10.10;2.75;;;;;;;22.93;37.11;101454.69;4957903;28;20129;-78
2023/06/14 10:31:05;;;;;;;6.47;2.70;;;;;;;22.93;37.99;101459.31;4979107;28;20034;-77
2023/06/14 10:33:53;;;;;;;8.02;2.63;;;;;;;22.97;36.49;101466.16;4974775;28;21296;-79
2023/06/14 10:36:31;;;;;;;7.13;2.90;;;;;;;22.98;37.28;101468.72;4975500;28;20125;-79
2023/06/14 10:39:17;;;;;;;8.00;2.92;;;;;;;22.99;36.81;101464.09;4979186;28;20098;-79
2023/06/14 10:41:51;;;;;;;9.25;3.10;;;;;;;23.00;36.39;101454.81;4975127;28;20173;-79
2023/06/14 10:44:17;;;;;;;6.30;2.35;;;;;;;23.02;37.88;101458.25;4978661;28;20059;-80
2023/06/14 10:47:21;;;;;;;8.93;2.88;;;;;;;23.08;36.42;101462.16;4977765;28;20034;-80
2023/06/14 10:50:14;;;;;;;9.45;3.17;;;;;;;23.15;36.02;101468.63;4960198;28;20041;-79
2023/06/14 10:52:41;;;;;;;6.75;2.92;;;;;;;23.18;34.48;101457.34;4975901;28;21599;-79
2023/06/14 10:55:14;;;;;;;10.15;3.00;;;;;;;23.19;35.62;101465.38;4961354;28;20537;-79
2023/06/14 10:57:51;;;;;;;4.72;2.50;;;;;;;23.18;36.21;101471.03;5013683;28;20063;-79
2023/06/14 11:00:21;;;;;;;8.80;3.13;;;;;;;23.24;36.38;101470.31;5043081;28;20361;-79
2023/06/14 11:03:13;;;;;;;10.00;3.03;;;;;;;23.27;38.54;101469.09;5044746;28;20123;-80
2023/06/14 11:05:47;;;;;;;7.13;3.00;;;;;;;23.30;36.23;101464.09;5044192;28;20025;-76
2023/06/14 11:08:15;;;;;;;9.05;3.53;;;;;;;23.35;38.20;101466.28;5043484;28;20084;-76
2023/06/14 11:10:43;;;;;;;6.78;3.38;;;;;;;23.39;37.18;101475.88;5025268;28;20629;-78
2023/06/14 11:13:09;;;;;;;9.77;3.22;;;;;;;23.48;37.19;101465.69;5023099;28;20026;-77
2023/06/14 11:15:36;;;;;;;11.48;3.42;;;;;;;23.42;34.56;101467.28;5046298;28;20025;-80
2023/06/14 11:18:04;;;;;;;8.82;3.13;;;;;;;23.49;36.55;101459.19;5042156;28;20023;-77
2023/06/14 11:20:31;;;;;;;6.57;3.15;;;;;;;23.57;36.32;101456.34;5044675;28;20341;-80